Terminal Aerodrome Forecast
Issued by NWS Columbia, SC

Home | Current Version | Previous Version | Text Only | Print | Product List | Glossary On
Versions: 1 2 3 4 5 6 7 8 9 10 11 12 13 14 15 16 17 18 19 20 21 22 23 24 25 26 27 28 29 30 31 32 33 34 35 36 37 38 39 40 41 42 43 44 45 46 47 48 49 50
296
FTUS42 KCAE 240108 AAE
TAFAGS
TAF AMD
KAGS 240108Z 2401/2424 10010KT P6SM VCTS BKN012CB OVC020
      TEMPO 2401/2405 6SM -SHRA OVC008
     FM240800 18005KT 2SM BR OVC007
     FM241400 24007KT P6SM SCT010 BKN025
     FM241700 25011KT P6SM SCT025 BKN090=

USA.gov is the U.S. government's official web portal to all federal, state and local government web resources and services.